page 4683 of 1011866 registered users

eBook PostsUsers

  1. 0storegander5 registered @ 2012-11-29 17:45:23, last login @ 2012-11-29 17:45:23
  2. 0hornpipe4 registered @ 2012-11-29 17:45:35, last login @ 2012-11-29 17:45:35
  3. 0maria77plow registered @ 2012-11-29 17:46:41, last login @ 2012-11-29 17:46:41
  4. 0nut5doubt registered @ 2012-11-29 17:47:23, last login @ 2012-11-29 17:47:23
  5. 0yacht18ocelot registered @ 2012-11-29 17:47:30, last login @ 2012-11-29 17:47:30
  6. 0cokebetty8 registered @ 2012-11-29 17:47:40, last login @ 2012-11-29 17:47:40
  7. 0pakarenny registered @ 2012-11-29 17:48:10, last login @ 2012-11-29 17:48:10
  8. 0JamesHPerrine registered @ 2012-11-29 17:48:16, last login @ 2012-11-29 17:57:26
  9. 0opera60den registered @ 2012-11-29 17:48:18, last login @ 2012-11-29 17:48:18
  10. 0vacuum28check registered @ 2012-11-29 17:48:20, last login @ 2012-11-29 17:48:20
  11. 0peanut40rocket registered @ 2012-11-29 17:49:51, last login @ 2012-11-29 17:49:51
  12. 0toilet94finger registered @ 2012-11-29 17:50:32, last login @ 2012-11-29 17:50:32
  13. 0rockyhebert49 registered @ 2012-11-29 17:52:03, last login @ 2012-11-29 17:52:03
  14. 0markusromano registered @ 2012-11-29 17:52:05, last login @ 2012-11-29 17:52:05
  15. 0buttonsphynx3 registered @ 2012-11-29 17:52:06, last login @ 2012-11-29 17:52:06
  16. 0sponge9pipe registered @ 2012-11-29 17:52:17, last login @ 2012-11-29 17:52:17
  17. 0femaleenemy8 registered @ 2012-11-29 17:52:22, last login @ 2012-11-29 17:52:22
  18. 0dayvoyage90 registered @ 2012-11-29 17:53:01, last login @ 2012-11-29 17:53:01
  19. 0crayonaries1 registered @ 2012-11-29 17:53:19, last login @ 2012-11-29 17:53:19
  20. 0corn26shade registered @ 2012-11-29 17:53:44, last login @ 2012-11-29 17:53:44
  21. 0lizardsoy91 registered @ 2012-11-29 17:54:33, last login @ 2012-11-29 17:54:33
  22. 0congo27jeff registered @ 2012-11-29 17:55:02, last login @ 2012-11-29 17:55:02
  23. 0otter3wealth registered @ 2012-11-29 17:56:44, last login @ 2012-11-29 17:56:44
  24. 0horn0radio registered @ 2012-11-29 17:57:08, last login @ 2012-11-29 17:57:08
  25. 01012 registered @ 2012-11-29 17:58:11, last login @ 2012-11-29 17:58:11
  26. 0tuna51lunch registered @ 2012-11-29 17:58:41, last login @ 2012-11-29 17:58:41
  27. 0hedge0salad registered @ 2012-11-29 17:59:40, last login @ 2012-11-29 17:59:40
  28. 0zoosharon9 registered @ 2012-11-29 18:00:50, last login @ 2012-11-29 18:00:50
  29. 0inchcomb6 registered @ 2012-11-29 18:00:54, last login @ 2012-11-29 18:00:54
  30. 0sampuanruj registered @ 2012-11-29 18:01:44, last login @ 2012-11-29 18:01:44
  31. 0rhythm9wind registered @ 2012-11-29 18:01:58, last login @ 2012-11-29 18:01:58
  32. 0rootcross68 registered @ 2012-11-29 18:02:06, last login @ 2012-11-29 18:02:06
  33. 0foamclef78 registered @ 2012-11-29 18:02:21, last login @ 2012-11-29 18:02:21
  34. 0bit4plain registered @ 2012-11-29 18:02:44, last login @ 2012-11-29 18:02:44
  35. 0bottomball60 registered @ 2012-11-29 18:02:50, last login @ 2012-11-29 18:02:50
  36. 0coastboy8 registered @ 2012-11-29 18:03:29, last login @ 2012-11-29 18:03:29
  37. 0lizardmimosa77 registered @ 2012-11-29 18:03:57, last login @ 2012-11-29 18:03:57
  38. 0ocelot6jeff registered @ 2012-11-29 18:04:20, last login @ 2012-11-29 18:34:41
  39. 0dibblewound9 registered @ 2012-11-29 18:04:27, last login @ 2012-11-29 18:47:35
  40. 0asia41brake registered @ 2012-11-29 18:04:56, last login @ 2012-11-29 18:04:56
  41. 0pinwax36 registered @ 2012-11-29 18:05:08, last login @ 2012-11-29 18:05:08
  42. 0fly45chill registered @ 2012-11-29 18:05:21, last login @ 2012-11-29 18:05:21
  43. 0active9cover registered @ 2012-11-29 18:05:22, last login @ 2012-11-29 18:54:39
  44. 0need66cup registered @ 2012-11-29 18:05:34, last login @ 2012-11-29 18:05:34
  45. 0mimosamath61 registered @ 2012-11-29 18:06:45, last login @ 2012-11-29 18:06:45
  46. 0boxbadger2 registered @ 2012-11-29 18:07:02, last login @ 2012-11-29 18:07:02
  47. 0hawkharp35 registered @ 2012-11-29 18:08:17, last login @ 2012-11-29 18:08:17
  48. 0actorboy10 registered @ 2012-11-29 18:08:54, last login @ 2012-11-29 18:08:54
  49. 0chainmuseum91 registered @ 2012-11-29 18:11:17, last login @ 2012-11-29 18:11:17
  50. 0pest5result registered @ 2012-11-29 18:11:54, last login @ 2012-11-29 18:50:40
  51. 0hall05snake registered @ 2012-11-29 18:12:00, last login @ 2012-11-29 18:12:00
  52. 0kidney71pickle registered @ 2012-11-29 18:12:49, last login @ 2012-11-29 18:12:49
  53. 0rubber1bomber registered @ 2012-11-29 18:12:50, last login @ 2012-11-29 18:58:43
  54. 0motion71jeff registered @ 2012-11-29 18:13:44, last login @ 2012-11-29 18:13:44
  55. 0prison63violin registered @ 2012-11-29 18:14:42, last login @ 2012-11-29 18:14:42
  56. 0toast90rub registered @ 2012-11-29 18:15:45, last login @ 2012-11-29 18:15:45
  57. 0zhangmai registered @ 2012-11-29 18:17:58, last login @ 2012-11-29 18:17:58
  58. 0bushcast9 registered @ 2012-11-29 18:20:01, last login @ 2012-11-29 18:20:01
  59. 0dock45paint registered @ 2012-11-29 18:20:32, last login @ 2012-11-29 18:20:32
  60. 0temple63maraca registered @ 2012-11-29 18:20:42, last login @ 2012-11-29 18:20:42
  61. 0snow80witch registered @ 2012-11-29 18:21:49, last login @ 2012-11-29 18:21:49
  62. 0swampspike7 registered @ 2012-11-29 18:22:21, last login @ 2012-11-29 18:22:21
  63. 0randommine1 registered @ 2012-11-29 18:22:22, last login @ 2012-11-29 18:22:22
  64. 0WilliamHTindle registered @ 2012-11-29 18:23:20, last login @ 2012-11-29 18:30:04
  65. 0cannon8gallon registered @ 2012-11-29 18:23:28, last login @ 2012-11-29 18:23:28
  66. 0mail3date registered @ 2012-11-29 18:24:01, last login @ 2012-11-29 18:24:01
  67. 0shadekitty1 registered @ 2012-11-29 18:25:56, last login @ 2012-11-29 18:25:56
  68. 0willow58salad registered @ 2012-11-29 18:26:05, last login @ 2012-11-29 18:26:05
  69. 0kaur_manpreet975 registered @ 2012-11-29 18:28:59, last login @ 2012-11-29 18:28:59
  70. 0oboe6answer registered @ 2012-11-29 18:31:41, last login @ 2012-11-29 18:31:41
  71. 0camera3cross registered @ 2012-11-29 18:33:08, last login @ 2012-11-29 18:33:08
  72. 0mayneedle7 registered @ 2012-11-29 18:34:08, last login @ 2012-11-29 18:34:08
  73. 0mole9army registered @ 2012-11-29 18:34:43, last login @ 2012-11-29 18:34:43
  74. 0congomoon73 registered @ 2012-11-29 18:35:26, last login @ 2012-11-29 18:35:26
  75. 0lawyer51cloth registered @ 2012-11-29 18:37:40, last login @ 2012-11-29 18:37:40
  76. 0jump06quart registered @ 2012-11-29 18:37:55, last login @ 2012-11-29 18:37:55
  77. 0horsequiver98 registered @ 2012-11-29 18:39:21, last login @ 2012-11-29 18:39:21
  78. 0motherwish09 registered @ 2012-11-29 18:39:44, last login @ 2012-11-29 18:39:44
  79. 0server69cup registered @ 2012-11-29 18:40:10, last login @ 2012-11-29 18:40:10
  80. 0brickrotate3 registered @ 2012-11-29 18:41:16, last login @ 2012-11-29 18:41:16
  81. 0lead07brain registered @ 2012-11-29 18:41:30, last login @ 2012-11-29 18:41:30
  82. 0fqh1921 registered @ 2012-11-29 18:42:10, last login @ 2012-11-29 18:42:10
  83. 0partanimal8 registered @ 2012-11-29 18:42:40, last login @ 2012-11-29 18:42:40
  84. 0bbopqiwtu registered @ 2012-11-29 18:42:54, last login @ 2012-11-29 18:42:54
  85. 0inch9pear registered @ 2012-11-29 18:43:12, last login @ 2012-11-29 18:43:12
  86. 0plantlizard25 registered @ 2012-11-29 18:43:17, last login @ 2012-11-29 18:43:17
  87. 0size72string registered @ 2012-11-29 18:44:12, last login @ 2012-11-29 18:44:12
  88. 0iciclecandle62 registered @ 2012-11-29 18:44:41, last login @ 2012-11-29 18:44:41
  89. 0dew4colt registered @ 2012-11-29 18:45:35, last login @ 2012-11-29 18:45:35
  90. 0poloepoxy6 registered @ 2012-11-29 18:48:57, last login @ 2012-11-29 18:48:57
  91. 0quilt4order registered @ 2012-11-29 18:49:09, last login @ 2012-11-29 18:49:09
  92. 0shield0part registered @ 2012-11-29 18:49:10, last login @ 2012-11-29 18:49:10
  93. 0sleepmole5 registered @ 2012-11-29 18:49:20, last login @ 2012-11-29 18:49:20
  94. 0number80report registered @ 2012-11-29 18:51:37, last login @ 2012-11-29 18:51:37
  95. 0sonform2 registered @ 2012-11-29 18:52:10, last login @ 2012-11-29 18:52:10
  96. 0orchid37dance registered @ 2012-11-29 18:53:22, last login @ 2012-11-29 18:53:22
  97. 0josestein021 registered @ 2012-11-29 18:54:19, last login @ 2012-11-29 18:54:19
  98. 0field9carp registered @ 2012-11-29 18:54:39, last login @ 2012-11-29 18:54:39
  99. 0melodylinda5 registered @ 2012-11-29 18:55:20, last login @ 2012-11-29 18:55:20
  100. 0patio66virgo registered @ 2012-11-29 18:55:30, last login @ 2012-11-29 18:55:30
  101. 0jeeppiano0 registered @ 2012-11-29 18:56:00, last login @ 2012-11-29 18:56:00

More...

[4693] [4692] [4691] [4690] [4689] [4688] [4687] [4686] [4685] [4684] [4683] [4682] [4681] [4680] [4679] [4678] [4677] [4676] [4675] [4674] ...[1]
Back to Top